sensor_id;sensor_type;location;lat;lon;timestamp;P1;durP1;ratioP1;P2;durP2;ratioP2
70049;SDS011;57391;51.306;22.680;2023-02-28T00:01:31;12.70;;;5.40;;
70049;SDS011;57391;51.306;22.680;2023-02-28T00:03:59;12.10;;;4.90;;
70049;SDS011;57391;51.306;22.680;2023-02-28T00:06:27;16.10;;;5.80;;
70049;SDS011;57391;51.306;22.680;2023-02-28T00:08:55;13.20;;;5.60;;
70049;SDS011;57391;51.306;22.680;2023-02-28T00:11:22;13.50;;;4.70;;
70049;SDS011;57391;51.306;22.680;2023-02-28T00:13:50;14.80;;;5.80;;
70049;SDS011;57391;51.306;22.680;2023-02-28T00:16:21;28.40;;;8.60;;
70049;SDS011;57391;51.306;22.680;2023-02-28T00:18:49;18.30;;;7.20;;
70049;SDS011;57391;51.306;22.680;2023-02-28T00:21:17;21.80;;;7.30;;
70049;SDS011;57391;51.306;22.680;2023-02-28T00:23:46;19.70;;;7.80;;
70049;SDS011;57391;51.306;22.680;2023-02-28T00:26:13;20.10;;;7.60;;
70049;SDS011;57391;51.306;22.680;2023-02-28T00:28:41;16.00;;;6.50;;
70049;SDS011;57391;51.306;22.680;2023-02-28T00:31:08;15.20;;;5.70;;
70049;SDS011;57391;51.306;22.680;2023-02-28T00:33:35;20.10;;;6.80;;
70049;SDS011;57391;51.306;22.680;2023-02-28T00:36:05;25.00;;;8.50;;
70049;SDS011;57391;51.306;22.680;2023-02-28T00:38:37;25.20;;;9.10;;
70049;SDS011;57391;51.306;22.680;2023-02-28T00:41:05;26.40;;;8.80;;
70049;SDS011;57391;51.306;22.680;2023-02-28T00:43:37;43.30;;;13.10;;
70049;SDS011;57391;51.306;22.680;2023-02-28T00:46:05;45.80;;;12.70;;
70049;SDS011;57391;51.306;22.680;2023-02-28T00:48:33;40.60;;;12.20;;
70049;SDS011;57391;51.306;22.680;2023-02-28T00:51:00;37.30;;;10.90;;
70049;SDS011;57391;51.306;22.680;2023-02-28T00:53:28;37.40;;;11.50;;
70049;SDS011;57391;51.306;22.680;2023-02-28T00:55:58;42.00;;;11.60;;
70049;SDS011;57391;51.306;22.680;2023-02-28T00:58:26;33.20;;;9.70;;
70049;SDS011;57391;51.306;22.680;2023-02-28T01:00:53;24.30;;;8.00;;
70049;SDS011;57391;51.306;22.680;2023-02-28T01:03:22;15.40;;;6.30;;
70049;SDS011;57391;51.306;22.680;2023-02-28T01:05:50;13.10;;;5.70;;
70049;SDS011;57391;51.306;22.680;2023-02-28T01:08:17;14.40;;;5.50;;
70049;SDS011;57391;51.306;22.680;2023-02-28T01:10:45;11.70;;;4.90;;
70049;SDS011;57391;51.306;22.680;2023-02-28T01:13:13;11.00;;;5.10;;
70049;SDS011;57391;51.306;22.680;2023-02-28T01:15:45;11.70;;;5.40;;
70049;SDS011;57391;51.306;22.680;2023-02-28T01:18:17;12.70;;;5.40;;
70049;SDS011;57391;51.306;22.680;2023-02-28T01:20:45;11.10;;;5.90;;
70049;SDS011;57391;51.306;22.680;2023-02-28T01:23:13;12.50;;;5.80;;
70049;SDS011;57391;51.306;22.680;2023-02-28T01:25:40;12.70;;;5.60;;
70049;SDS011;57391;51.306;22.680;2023-02-28T01:28:07;13.90;;;5.70;;
70049;SDS011;57391;51.306;22.680;2023-02-28T01:30:34;13.50;;;5.80;;
70049;SDS011;57391;51.306;22.680;2023-02-28T01:33:01;15.10;;;5.50;;
70049;SDS011;57391;51.306;22.680;2023-02-28T01:35:32;12.90;;;5.30;;
70049;SDS011;57391;51.306;22.680;2023-02-28T01:38:01;13.00;;;5.20;;
70049;SDS011;57391;51.306;22.680;2023-02-28T01:40:29;11.90;;;5.70;;
70049;SDS011;57391;51.306;22.680;2023-02-28T01:42:56;11.80;;;5.40;;
70049;SDS011;57391;51.306;22.680;2023-02-28T01:45:27;12.30;;;5.60;;
70049;SDS011;57391;51.306;22.680;2023-02-28T01:48:02;11.10;;;4.50;;
70049;SDS011;57391;51.306;22.680;2023-02-28T01:50:36;10.60;;;4.40;;
70049;SDS011;57391;51.306;22.680;2023-02-28T01:53:16;12.80;;;5.30;;
70049;SDS011;57391;51.306;22.680;2023-02-28T01:55:48;11.80;;;4.60;;
70049;SDS011;57391;51.306;22.680;2023-02-28T01:58:21;9.90;;;4.50;;
70049;SDS011;57391;51.306;22.680;2023-02-28T02:00:48;10.00;;;4.00;;
70049;SDS011;57391;51.306;22.680;2023-02-28T02:03:18;9.40;;;4.20;;
70049;SDS011;57391;51.306;22.680;2023-02-28T02:05:47;7.90;;;3.40;;
70049;SDS011;57391;51.306;22.680;2023-02-28T02:08:20;9.20;;;4.00;;
70049;SDS011;57391;51.306;22.680;2023-02-28T02:10:52;10.10;;;4.50;;
70049;SDS011;57391;51.306;22.680;2023-02-28T02:22:50;6.90;;;3.40;;
70049;SDS011;57391;51.306;22.680;2023-02-28T02:42:57;18.90;;;7.20;;
70049;SDS011;57391;51.306;22.680;2023-02-28T02:48:12;24.80;;;7.80;;
70049;SDS011;57391;51.306;22.680;2023-02-28T02:51:03;22.90;;;8.40;;
70049;SDS011;57391;51.306;22.680;2023-02-28T02:53:53;29.50;;;8.60;;
70049;SDS011;57391;51.306;22.680;2023-02-28T02:56:28;15.60;;;5.40;;
70049;SDS011;57391;51.306;22.680;2023-02-28T02:59:02;15.90;;;6.30;;
70049;SDS011;57391;51.306;22.680;2023-02-28T03:01:32;13.80;;;5.10;;
70049;SDS011;57391;51.306;22.680;2023-02-28T03:04:11;13.30;;;5.10;;
70049;SDS011;57391;51.306;22.680;2023-02-28T03:06:48;14.20;;;5.20;;
70049;SDS011;57391;51.306;22.680;2023-02-28T03:09:23;17.10;;;7.30;;
70049;SDS011;57391;51.306;22.680;2023-02-28T03:11:54;16.80;;;6.70;;
70049;SDS011;57391;51.306;22.680;2023-02-28T03:18:08;19.60;;;6.90;;
70049;SDS011;57391;51.306;22.680;2023-02-28T03:20:39;18.30;;;7.80;;
70049;SDS011;57391;51.306;22.680;2023-02-28T03:23:41;30.30;;;11.60;;
70049;SDS011;57391;51.306;22.680;2023-02-28T03:26:19;22.40;;;9.00;;
70049;SDS011;57391;51.306;22.680;2023-02-28T03:28:52;16.80;;;7.50;;
70049;SDS011;57391;51.306;22.680;2023-02-28T03:34:10;17.40;;;7.20;;
70049;SDS011;57391;51.306;22.680;2023-02-28T03:36:44;15.90;;;7.00;;
70049;SDS011;57391;51.306;22.680;2023-02-28T03:39:24;14.10;;;6.40;;
70049;SDS011;57391;51.306;22.680;2023-02-28T03:42:01;16.80;;;6.60;;
70049;SDS011;57391;51.306;22.680;2023-02-28T03:44:54;12.70;;;5.70;;
70049;SDS011;57391;51.306;22.680;2023-02-28T03:47:29;21.80;;;9.30;;
70049;SDS011;57391;51.306;22.680;2023-02-28T03:50:07;16.60;;;7.60;;
70049;SDS011;57391;51.306;22.680;2023-02-28T03:52:50;33.00;;;14.30;;
70049;SDS011;57391;51.306;22.680;2023-02-28T03:55:32;25.20;;;11.20;;
70049;SDS011;57391;51.306;22.680;2023-02-28T04:00:49;17.20;;;8.50;;
70049;SDS011;57391;51.306;22.680;2023-02-28T04:03:22;15.60;;;7.70;;
70049;SDS011;57391;51.306;22.680;2023-02-28T04:05:54;17.10;;;7.60;;
70049;SDS011;57391;51.306;22.680;2023-02-28T04:08:23;18.70;;;8.20;;
70049;SDS011;57391;51.306;22.680;2023-02-28T04:11:21;15.80;;;7.30;;
70049;SDS011;57391;51.306;22.680;2023-02-28T04:13:49;18.00;;;7.80;;
70049;SDS011;57391;51.306;22.680;2023-02-28T04:16:16;14.70;;;6.40;;
70049;SDS011;57391;51.306;22.680;2023-02-28T04:18:44;14.90;;;6.60;;
70049;SDS011;57391;51.306;22.680;2023-02-28T04:21:12;17.40;;;7.20;;
70049;SDS011;57391;51.306;22.680;2023-02-28T04:23:39;15.70;;;7.00;;
70049;SDS011;57391;51.306;22.680;2023-02-28T04:26:06;14.60;;;7.10;;
70049;SDS011;57391;51.306;22.680;2023-02-28T04:28:33;16.20;;;7.40;;
70049;SDS011;57391;51.306;22.680;2023-02-28T04:31:03;16.10;;;7.00;;
70049;SDS011;57391;51.306;22.680;2023-02-28T04:33:32;14.60;;;7.10;;
70049;SDS011;57391;51.306;22.680;2023-02-28T04:38:37;10.90;;;5.20;;
70049;SDS011;57391;51.306;22.680;2023-02-28T04:41:06;11.80;;;5.20;;
70049;SDS011;57391;51.306;22.680;2023-02-28T04:43:33;11.50;;;5.60;;
70049;SDS011;57391;51.306;22.680;2023-02-28T04:46:02;13.00;;;5.40;;
70049;SDS011;57391;51.306;22.680;2023-02-28T04:48:35;10.90;;;5.10;;
70049;SDS011;57391;51.306;22.680;2023-02-28T04:51:08;10.60;;;5.10;;
70049;SDS011;57391;51.306;22.680;2023-02-28T04:53:38;12.30;;;5.30;;
70049;SDS011;57391;51.306;22.680;2023-02-28T04:56:08;10.20;;;4.80;;
70049;SDS011;57391;51.306;22.680;2023-02-28T04:58:38;8.50;;;4.50;;
70049;SDS011;57391;51.306;22.680;2023-02-28T05:03:46;12.20;;;4.90;;
70049;SDS011;57391;51.306;22.680;2023-02-28T05:06:14;12.00;;;5.10;;
70049;SDS011;57391;51.306;22.680;2023-02-28T05:08:42;9.80;;;4.90;;
70049;SDS011;57391;51.306;22.680;2023-02-28T05:11:30;9.00;;;4.50;;
70049;SDS011;57391;51.306;22.680;2023-02-28T05:14:02;13.00;;;5.30;;
70049;SDS011;57391;51.306;22.680;2023-02-28T05:16:31;18.50;;;7.00;;
70049;SDS011;57391;51.306;22.680;2023-02-28T05:18:59;15.50;;;7.00;;
70049;SDS011;57391;51.306;22.680;2023-02-28T05:21:38;16.40;;;7.10;;
70049;SDS011;57391;51.306;22.680;2023-02-28T05:24:09;19.40;;;7.40;;
70049;SDS011;57391;51.306;22.680;2023-02-28T05:26:42;18.20;;;7.80;;
70049;SDS011;57391;51.306;22.680;2023-02-28T05:29:10;17.60;;;7.00;;
70049;SDS011;57391;51.306;22.680;2023-02-28T05:31:37;16.20;;;6.90;;
70049;SDS011;57391;51.306;22.680;2023-02-28T05:34:05;20.80;;;7.60;;
70049;SDS011;57391;51.306;22.680;2023-02-28T05:36:33;17.60;;;7.60;;
70049;SDS011;57391;51.306;22.680;2023-02-28T05:39:05;17.30;;;7.10;;
70049;SDS011;57391;51.306;22.680;2023-02-28T05:41:34;17.80;;;6.90;;
70049;SDS011;57391;51.306;22.680;2023-02-28T05:44:01;28.50;;;11.10;;
70049;SDS011;57391;51.306;22.680;2023-02-28T05:46:28;26.80;;;10.40;;
70049;SDS011;57391;51.306;22.680;2023-02-28T05:48:55;42.80;;;15.20;;
70049;SDS011;57391;51.306;22.680;2023-02-28T05:51:24;30.90;;;12.10;;
70049;SDS011;57391;51.306;22.680;2023-02-28T05:53:51;26.20;;;10.80;;
70049;SDS011;57391;51.306;22.680;2023-02-28T05:56:18;34.70;;;14.90;;
70049;SDS011;57391;51.306;22.680;2023-02-28T05:58:45;39.40;;;16.50;;
70049;SDS011;57391;51.306;22.680;2023-02-28T06:01:22;46.30;;;19.10;;
70049;SDS011;57391;51.306;22.680;2023-02-28T06:03:51;35.60;;;14.30;;
70049;SDS011;57391;51.306;22.680;2023-02-28T06:06:18;28.70;;;11.90;;
70049;SDS011;57391;51.306;22.680;2023-02-28T06:08:45;27.00;;;11.10;;
70049;SDS011;57391;51.306;22.680;2023-02-28T06:11:12;24.40;;;9.70;;
70049;SDS011;57391;51.306;22.680;2023-02-28T06:13:40;19.40;;;8.50;;
70049;SDS011;57391;51.306;22.680;2023-02-28T06:16:10;18.10;;;8.70;;
70049;SDS011;57391;51.306;22.680;2023-02-28T06:18:38;16.90;;;8.40;;
70049;SDS011;57391;51.306;22.680;2023-02-28T06:21:05;15.50;;;7.30;;
70049;SDS011;57391;51.306;22.680;2023-02-28T06:23:32;16.70;;;7.30;;
70049;SDS011;57391;51.306;22.680;2023-02-28T06:25:59;17.60;;;7.30;;
70049;SDS011;57391;51.306;22.680;2023-02-28T06:28:26;18.20;;;8.20;;
70049;SDS011;57391;51.306;22.680;2023-02-28T06:30:53;16.90;;;8.50;;
70049;SDS011;57391;51.306;22.680;2023-02-28T06:33:20;21.10;;;9.50;;
70049;SDS011;57391;51.306;22.680;2023-02-28T06:35:50;18.60;;;8.40;;
70049;SDS011;57391;51.306;22.680;2023-02-28T06:38:18;13.20;;;6.80;;
70049;SDS011;57391;51.306;22.680;2023-02-28T06:40:53;16.40;;;7.20;;
70049;SDS011;57391;51.306;22.680;2023-02-28T06:43:24;14.10;;;6.60;;
70049;SDS011;57391;51.306;22.680;2023-02-28T06:45:58;15.40;;;7.30;;
70049;SDS011;57391;51.306;22.680;2023-02-28T06:48:27;12.10;;;7.30;;
70049;SDS011;57391;51.306;22.680;2023-02-28T06:53:32;13.10;;;6.40;;
70049;SDS011;57391;51.306;22.680;2023-02-28T06:56:04;12.10;;;6.30;;
70049;SDS011;57391;51.306;22.680;2023-02-28T06:58:33;12.60;;;6.10;;
70049;SDS011;57391;51.306;22.680;2023-02-28T07:01:01;12.90;;;6.50;;
70049;SDS011;57391;51.306;22.680;2023-02-28T07:03:30;11.90;;;6.50;;
70049;SDS011;57391;51.306;22.680;2023-02-28T07:05:57;11.00;;;6.30;;
70049;SDS011;57391;51.306;22.680;2023-02-28T07:08:24;13.40;;;6.20;;
70049;SDS011;57391;51.306;22.680;2023-02-28T07:10:55;14.60;;;6.50;;
70049;SDS011;57391;51.306;22.680;2023-02-28T07:13:23;11.60;;;6.00;;
70049;SDS011;57391;51.306;22.680;2023-02-28T07:16:05;12.90;;;5.90;;
70049;SDS011;57391;51.306;22.680;2023-02-28T07:18:36;12.00;;;6.20;;
70049;SDS011;57391;51.306;22.680;2023-02-28T07:21:05;12.90;;;6.20;;
70049;SDS011;57391;51.306;22.680;2023-02-28T07:23:35;11.30;;;5.90;;
70049;SDS011;57391;51.306;22.680;2023-02-28T07:26:05;10.50;;;5.10;;
70049;SDS011;57391;51.306;22.680;2023-02-28T07:28:33;9.60;;;4.50;;
70049;SDS011;57391;51.306;22.680;2023-02-28T07:31:04;10.10;;;5.10;;
70049;SDS011;57391;51.306;22.680;2023-02-28T07:33:33;11.30;;;4.80;;
70049;SDS011;57391;51.306;22.680;2023-02-28T07:36:05;9.30;;;4.10;;
70049;SDS011;57391;51.306;22.680;2023-02-28T07:38:36;9.60;;;5.10;;
70049;SDS011;57391;51.306;22.680;2023-02-28T07:41:04;9.60;;;5.00;;
70049;SDS011;57391;51.306;22.680;2023-02-28T07:43:32;10.10;;;5.10;;
70049;SDS011;57391;51.306;22.680;2023-02-28T07:46:12;14.70;;;6.90;;
70049;SDS011;57391;51.306;22.680;2023-02-28T07:48:43;10.40;;;5.10;;
70049;SDS011;57391;51.306;22.680;2023-02-28T07:51:11;10.60;;;4.80;;
70049;SDS011;57391;51.306;22.680;2023-02-28T07:53:38;11.10;;;5.20;;
70049;SDS011;57391;51.306;22.680;2023-02-28T07:56:06;10.00;;;4.80;;
70049;SDS011;57391;51.306;22.680;2023-02-28T07:58:33;10.80;;;4.80;;
70049;SDS011;57391;51.306;22.680;2023-02-28T08:01:08;9.70;;;4.30;;
70049;SDS011;57391;51.306;22.680;2023-02-28T08:03:37;9.00;;;4.90;;
70049;SDS011;57391;51.306;22.680;2023-02-28T08:06:07;8.00;;;4.60;;
70049;SDS011;57391;51.306;22.680;2023-02-28T08:08:41;8.00;;;4.40;;
70049;SDS011;57391;51.306;22.680;2023-02-28T08:11:08;8.20;;;4.20;;
70049;SDS011;57391;51.306;22.680;2023-02-28T08:13:35;8.20;;;4.30;;
70049;SDS011;57391;51.306;22.680;2023-02-28T08:16:02;10.70;;;4.60;;
70049;SDS011;57391;51.306;22.680;2023-02-28T08:18:30;13.80;;;6.90;;
70049;SDS011;57391;51.306;22.680;2023-02-28T08:20:58;10.20;;;5.10;;
70049;SDS011;57391;51.306;22.680;2023-02-28T08:23:25;9.60;;;4.60;;
70049;SDS011;57391;51.306;22.680;2023-02-28T08:25:54;12.20;;;5.40;;
70049;SDS011;57391;51.306;22.680;2023-02-28T08:28:23;13.70;;;7.90;;
70049;SDS011;57391;51.306;22.680;2023-02-28T08:30:50;10.10;;;5.10;;
70049;SDS011;57391;51.306;22.680;2023-02-28T08:33:17;10.20;;;5.00;;
70049;SDS011;57391;51.306;22.680;2023-02-28T08:35:44;8.60;;;4.60;;
70049;SDS011;57391;51.306;22.680;2023-02-28T08:38:11;8.80;;;4.20;;
70049;SDS011;57391;51.306;22.680;2023-02-28T08:40:38;10.90;;;4.90;;
70049;SDS011;57391;51.306;22.680;2023-02-28T08:43:06;9.70;;;4.90;;
70049;SDS011;57391;51.306;22.680;2023-02-28T08:45:34;8.80;;;4.50;;
70049;SDS011;57391;51.306;22.680;2023-02-28T08:48:01;9.10;;;4.70;;
70049;SDS011;57391;51.306;22.680;2023-02-28T08:50:28;10.60;;;5.00;;
70049;SDS011;57391;51.306;22.680;2023-02-28T08:52:55;9.80;;;4.60;;
70049;SDS011;57391;51.306;22.680;2023-02-28T08:55:22;11.80;;;4.60;;
70049;SDS011;57391;51.306;22.680;2023-02-28T08:57:49;17.60;;;7.30;;
70049;SDS011;57391;51.306;22.680;2023-02-28T09:00:16;15.50;;;5.90;;
70049;SDS011;57391;51.306;22.680;2023-02-28T09:02:44;9.70;;;5.10;;
70049;SDS011;57391;51.306;22.680;2023-02-28T09:05:11;11.80;;;5.10;;
70049;SDS011;57391;51.306;22.680;2023-02-28T09:07:38;10.00;;;5.00;;
70049;SDS011;57391;51.306;22.680;2023-02-28T09:10:05;11.40;;;4.90;;
70049;SDS011;57391;51.306;22.680;2023-02-28T09:12:34;10.30;;;4.60;;
70049;SDS011;57391;51.306;22.680;2023-02-28T09:15:02;10.40;;;4.50;;
70049;SDS011;57391;51.306;22.680;2023-02-28T09:17:30;8.50;;;4.90;;
70049;SDS011;57391;51.306;22.680;2023-02-28T09:19:57;9.70;;;4.70;;
70049;SDS011;57391;51.306;22.680;2023-02-28T09:22:24;8.60;;;4.70;;
70049;SDS011;57391;51.306;22.680;2023-02-28T09:24:51;9.50;;;5.00;;
70049;SDS011;57391;51.306;22.680;2023-02-28T09:27:18;10.30;;;4.70;;
70049;SDS011;57391;51.306;22.680;2023-02-28T09:29:45;10.30;;;4.50;;
70049;SDS011;57391;51.306;22.680;2023-02-28T09:32:12;10.30;;;4.90;;
70049;SDS011;57391;51.306;22.680;2023-02-28T09:34:39;10.10;;;5.00;;
70049;SDS011;57391;51.306;22.680;2023-02-28T09:37:06;10.10;;;4.80;;
70049;SDS011;57391;51.306;22.680;2023-02-28T09:39:33;9.30;;;4.60;;
70049;SDS011;57391;51.306;22.680;2023-02-28T09:42:02;9.50;;;5.00;;
70049;SDS011;57391;51.306;22.680;2023-02-28T09:44:42;8.30;;;4.80;;
70049;SDS011;57391;51.306;22.680;2023-02-28T09:47:34;10.00;;;5.10;;
70049;SDS011;57391;51.306;22.680;2023-02-28T09:50:30;10.30;;;5.30;;
70049;SDS011;57391;51.306;22.680;2023-02-28T09:53:02;11.50;;;5.60;;
70049;SDS011;57391;51.306;22.680;2023-02-28T09:55:44;8.70;;;5.10;;
70049;SDS011;57391;51.306;22.680;2023-02-28T09:58:37;11.60;;;6.10;;
70049;SDS011;57391;51.306;22.680;2023-02-28T10:01:16;9.00;;;5.10;;
70049;SDS011;57391;51.306;22.680;2023-02-28T10:04:40;8.20;;;5.00;;
70049;SDS011;57391;51.306;22.680;2023-02-28T10:06:55;10.90;;;5.00;;
70049;SDS011;57391;51.306;22.680;2023-02-28T10:09:26;10.70;;;5.20;;
70049;SDS011;57391;51.306;22.680;2023-02-28T10:12:03;8.90;;;4.90;;
70049;SDS011;57391;51.306;22.680;2023-02-28T10:14:33;9.40;;;4.70;;
70049;SDS011;57391;51.306;22.680;2023-02-28T10:17:04;9.60;;;5.60;;
70049;SDS011;57391;51.306;22.680;2023-02-28T10:22:17;8.60;;;4.90;;
70049;SDS011;57391;51.306;22.680;2023-02-28T10:24:50;9.60;;;6.00;;
70049;SDS011;57391;51.306;22.680;2023-02-28T10:29:56;9.70;;;5.60;;
70049;SDS011;57391;51.306;22.680;2023-02-28T10:32:27;10.40;;;4.70;;
70049;SDS011;57391;51.306;22.680;2023-02-28T10:35:06;11.00;;;5.80;;
70049;SDS011;57391;51.306;22.680;2023-02-28T10:37:43;10.20;;;5.80;;
70049;SDS011;57391;51.306;22.680;2023-02-28T10:46:13;9.60;;;5.70;;
70049;SDS011;57391;51.306;22.680;2023-02-28T10:49:03;9.70;;;5.80;;
70049;SDS011;57391;51.306;22.680;2023-02-28T10:51:36;9.50;;;6.30;;
70049;SDS011;57391;51.306;22.680;2023-02-28T10:54:14;11.30;;;6.20;;
70049;SDS011;57391;51.306;22.680;2023-02-28T10:56:43;10.30;;;5.70;;
70049;SDS011;57391;51.306;22.680;2023-02-28T10:59:29;8.90;;;5.20;;
70049;SDS011;57391;51.306;22.680;2023-02-28T11:01:57;12.10;;;5.80;;
70049;SDS011;57391;51.306;22.680;2023-02-28T11:07:04;10.40;;;5.40;;
70049;SDS011;57391;51.306;22.680;2023-02-28T11:09:38;10.00;;;5.20;;
70049;SDS011;57391;51.306;22.680;2023-02-28T11:12:21;10.50;;;6.00;;
70049;SDS011;57391;51.306;22.680;2023-02-28T11:14:55;11.20;;;6.50;;
70049;SDS011;57391;51.306;22.680;2023-02-28T11:17:28;11.60;;;6.10;;
70049;SDS011;57391;51.306;22.680;2023-02-28T11:20:04;10.60;;;6.10;;
70049;SDS011;57391;51.306;22.680;2023-02-28T11:22:37;10.90;;;6.20;;
70049;SDS011;57391;51.306;22.680;2023-02-28T11:27:57;11.20;;;6.60;;
70049;SDS011;57391;51.306;22.680;2023-02-28T11:30:37;8.80;;;5.10;;
70049;SDS011;57391;51.306;22.680;2023-02-28T11:33:54;11.30;;;5.70;;
70049;SDS011;57391;51.306;22.680;2023-02-28T11:36:30;11.50;;;6.10;;
70049;SDS011;57391;51.306;22.680;2023-02-28T11:39:04;10.60;;;6.40;;
70049;SDS011;57391;51.306;22.680;2023-02-28T11:41:59;12.10;;;6.50;;
70049;SDS011;57391;51.306;22.680;2023-02-28T11:44:41;11.70;;;6.50;;
70049;SDS011;57391;51.306;22.680;2023-02-28T11:53:00;9.90;;;5.80;;
70049;SDS011;57391;51.306;22.680;2023-02-28T12:04:59;12.50;;;7.20;;
70049;SDS011;57391;51.306;22.680;2023-02-28T12:07:58;11.50;;;6.60;;
70049;SDS011;57391;51.306;22.680;2023-02-28T12:11:15;12.50;;;6.80;;
70049;SDS011;57391;51.306;22.680;2023-02-28T12:17:02;11.60;;;7.40;;
70049;SDS011;57391;51.306;22.680;2023-02-28T12:27:59;11.00;;;6.60;;
70049;SDS011;57391;51.306;22.680;2023-02-28T12:30:29;11.40;;;7.40;;
70049;SDS011;57391;51.306;22.680;2023-02-28T12:33:12;12.40;;;7.40;;
70049;SDS011;57391;51.306;22.680;2023-02-28T12:35:51;11.60;;;6.80;;
70049;SDS011;57391;51.306;22.680;2023-02-28T12:38:27;11.60;;;6.90;;
70049;SDS011;57391;51.306;22.680;2023-02-28T12:41:49;14.20;;;7.40;;
70049;SDS011;57391;51.306;22.680;2023-02-28T12:44:30;11.60;;;6.90;;
70049;SDS011;57391;51.306;22.680;2023-02-28T12:47:05;10.90;;;6.40;;
70049;SDS011;57391;51.306;22.680;2023-02-28T12:50:02;9.90;;;6.10;;
70049;SDS011;57391;51.306;22.680;2023-02-28T12:52:46;14.10;;;7.50;;
70049;SDS011;57391;51.306;22.680;2023-02-28T13:09:55;11.00;;;6.10;;
70049;SDS011;57391;51.306;22.680;2023-02-28T13:12:25;9.20;;;5.90;;
70049;SDS011;57391;51.306;22.680;2023-02-28T13:15:18;11.70;;;6.30;;
70049;SDS011;57391;51.306;22.680;2023-02-28T13:17:58;9.30;;;5.70;;
70049;SDS011;57391;51.306;22.680;2023-02-28T13:20:29;10.20;;;6.10;;
70049;SDS011;57391;51.306;22.680;2023-02-28T13:23:03;9.80;;;5.80;;
70049;SDS011;57391;51.306;22.680;2023-02-28T13:28:03;9.60;;;6.00;;
70049;SDS011;57391;51.306;22.680;2023-02-28T13:36:08;9.30;;;5.60;;
70049;SDS011;57391;51.306;22.680;2023-02-28T13:38:42;10.90;;;6.40;;
70049;SDS011;57391;51.306;22.680;2023-02-28T14:06:54;10.10;;;6.30;;
70049;SDS011;57391;51.306;22.680;2023-02-28T14:09:38;10.80;;;6.30;;
70049;SDS011;57391;51.306;22.680;2023-02-28T14:15:43;10.10;;;5.90;;
70049;SDS011;57391;51.306;22.680;2023-02-28T14:18:37;11.70;;;6.30;;
70049;SDS011;57391;51.306;22.680;2023-02-28T14:21:19;10.00;;;6.40;;
70049;SDS011;57391;51.306;22.680;2023-02-28T14:39:17;10.80;;;6.20;;
70049;SDS011;57391;51.306;22.680;2023-02-28T14:41:48;12.60;;;6.80;;
70049;SDS011;57391;51.306;22.680;2023-02-28T14:44:23;11.90;;;6.50;;
70049;SDS011;57391;51.306;22.680;2023-02-28T14:46:55;13.70;;;7.40;;
70049;SDS011;57391;51.306;22.680;2023-02-28T14:52:09;13.60;;;7.50;;
70049;SDS011;57391;51.306;22.680;2023-02-28T14:54:40;11.50;;;6.70;;
70049;SDS011;57391;51.306;22.680;2023-02-28T14:57:29;10.50;;;6.60;;
70049;SDS011;57391;51.306;22.680;2023-02-28T15:00:23;11.10;;;6.90;;
70049;SDS011;57391;51.306;22.680;2023-02-28T15:02:53;11.50;;;6.80;;
70049;SDS011;57391;51.306;22.680;2023-02-28T15:05:31;12.80;;;7.10;;
70049;SDS011;57391;51.306;22.680;2023-02-28T15:08:15;11.40;;;6.20;;
70049;SDS011;57391;51.306;22.680;2023-02-28T15:10:54;12.30;;;7.80;;
70049;SDS011;57391;51.306;22.680;2023-02-28T15:13:36;9.60;;;6.20;;
70049;SDS011;57391;51.306;22.680;2023-02-28T15:16:33;11.70;;;6.90;;
70049;SDS011;57391;51.306;22.680;2023-02-28T15:19:14;13.30;;;7.10;;
70049;SDS011;57391;51.306;22.680;2023-02-28T15:21:56;11.50;;;6.60;;
70049;SDS011;57391;51.306;22.680;2023-02-28T15:24:46;12.50;;;6.50;;
70049;SDS011;57391;51.306;22.680;2023-02-28T15:27:22;11.80;;;7.00;;
70049;SDS011;57391;51.306;22.680;2023-02-28T15:29:57;12.10;;;6.60;;
70049;SDS011;57391;51.306;22.680;2023-02-28T15:32:32;10.50;;;6.60;;
70049;SDS011;57391;51.306;22.680;2023-02-28T15:35:37;12.00;;;7.50;;
70049;SDS011;57391;51.306;22.680;2023-02-28T15:38:25;10.50;;;6.30;;
70049;SDS011;57391;51.306;22.680;2023-02-28T15:40:58;12.80;;;6.60;;
70049;SDS011;57391;51.306;22.680;2023-02-28T15:46:09;13.80;;;7.40;;
70049;SDS011;57391;51.306;22.680;2023-02-28T15:48:52;12.00;;;7.10;;
70049;SDS011;57391;51.306;22.680;2023-02-28T15:51:31;13.70;;;8.20;;
70049;SDS011;57391;51.306;22.680;2023-02-28T15:54:14;14.30;;;7.70;;
70049;SDS011;57391;51.306;22.680;2023-02-28T15:56:49;15.20;;;8.00;;
70049;SDS011;57391;51.306;22.680;2023-02-28T15:59:29;17.00;;;9.20;;
70049;SDS011;57391;51.306;22.680;2023-02-28T16:04:56;18.90;;;9.30;;
70049;SDS011;57391;51.306;22.680;2023-02-28T16:07:26;18.10;;;9.60;;
70049;SDS011;57391;51.306;22.680;2023-02-28T16:09:54;18.20;;;9.60;;
70049;SDS011;57391;51.306;22.680;2023-02-28T16:12:26;19.80;;;10.50;;
70049;SDS011;57391;51.306;22.680;2023-02-28T16:15:00;22.60;;;12.60;;
70049;SDS011;57391;51.306;22.680;2023-02-28T16:17:33;25.40;;;12.40;;
70049;SDS011;57391;51.306;22.680;2023-02-28T16:20:27;27.40;;;13.30;;
70049;SDS011;57391;51.306;22.680;2023-02-28T16:22:56;29.10;;;13.90;;
70049;SDS011;57391;51.306;22.680;2023-02-28T16:25:33;26.00;;;13.50;;
70049;SDS011;57391;51.306;22.680;2023-02-28T16:28:03;26.70;;;13.10;;
70049;SDS011;57391;51.306;22.680;2023-02-28T16:30:35;30.40;;;14.40;;
70049;SDS011;57391;51.306;22.680;2023-02-28T16:33:02;29.00;;;14.20;;
70049;SDS011;57391;51.306;22.680;2023-02-28T16:35:30;30.40;;;14.50;;
70049;SDS011;57391;51.306;22.680;2023-02-28T16:37:58;36.40;;;15.40;;
70049;SDS011;57391;51.306;22.680;2023-02-28T16:40:26;30.50;;;14.10;;
70049;SDS011;57391;51.306;22.680;2023-02-28T16:42:59;27.50;;;13.80;;
70049;SDS011;57391;51.306;22.680;2023-02-28T16:45:28;34.10;;;14.60;;
70049;SDS011;57391;51.306;22.680;2023-02-28T16:47:56;33.20;;;14.20;;
70049;SDS011;57391;51.306;22.680;2023-02-28T16:50:26;30.20;;;14.40;;
70049;SDS011;57391;51.306;22.680;2023-02-28T16:52:55;35.90;;;15.80;;
70049;SDS011;57391;51.306;22.680;2023-02-28T16:55:24;40.20;;;17.60;;
70049;SDS011;57391;51.306;22.680;2023-02-28T16:57:59;43.30;;;18.20;;
70049;SDS011;57391;51.306;22.680;2023-02-28T17:00:29;42.70;;;19.80;;
70049;SDS011;57391;51.306;22.680;2023-02-28T17:02:58;49.10;;;22.50;;
70049;SDS011;57391;51.306;22.680;2023-02-28T17:05:38;53.10;;;23.80;;
70049;SDS011;57391;51.306;22.680;2023-02-28T17:08:06;50.50;;;21.60;;
70049;SDS011;57391;51.306;22.680;2023-02-28T17:10:33;65.40;;;28.60;;
70049;SDS011;57391;51.306;22.680;2023-02-28T17:13:01;59.50;;;27.80;;
70049;SDS011;57391;51.306;22.680;2023-02-28T17:15:28;55.60;;;26.60;;
70049;SDS011;57391;51.306;22.680;2023-02-28T17:17:56;54.90;;;24.10;;
70049;SDS011;57391;51.306;22.680;2023-02-28T17:20:24;55.50;;;26.10;;
70049;SDS011;57391;51.306;22.680;2023-02-28T17:22:54;64.10;;;29.80;;
70049;SDS011;57391;51.306;22.680;2023-02-28T17:25:23;73.80;;;31.70;;
70049;SDS011;57391;51.306;22.680;2023-02-28T17:27:54;78.90;;;32.40;;
70049;SDS011;57391;51.306;22.680;2023-02-28T17:30:23;74.50;;;32.90;;
70049;SDS011;57391;51.306;22.680;2023-02-28T17:32:56;72.80;;;31.00;;
70049;SDS011;57391;51.306;22.680;2023-02-28T17:35:24;65.60;;;30.40;;
70049;SDS011;57391;51.306;22.680;2023-02-28T17:37:53;72.70;;;30.90;;
70049;SDS011;57391;51.306;22.680;2023-02-28T17:40:22;82.30;;;32.50;;